createdAt,value
2019-03-15T00:00:33.468Z,99404.14
2019-03-15T00:03:02.399Z,99403.75
2019-03-15T00:05:31.792Z,99406.41
2019-03-15T00:08:00.802Z,99414.25
2019-03-15T00:10:29.967Z,99428.81
2019-03-15T00:12:59.124Z,99453.08
2019-03-15T00:15:28.129Z,99444.76
2019-03-15T00:17:57.498Z,99452.60
2019-03-15T00:20:26.804Z,99468.59
2019-03-15T00:22:55.805Z,99468.69
2019-03-15T00:25:24.860Z,99458.05
2019-03-15T00:27:54.197Z,99469.51
2019-03-15T00:30:23.456Z,99477.75
2019-03-15T00:32:52.427Z,99489.25
2019-03-15T00:35:21.371Z,99494.75
2019-03-15T00:37:50.341Z,99473.43
2019-03-15T00:40:19.843Z,99498.79
2019-03-15T00:42:48.889Z,99508.90
2019-03-15T00:45:17.899Z,99507.52
2019-03-15T00:47:46.891Z,99523.19
2019-03-15T00:50:15.895Z,99518.97
2019-03-15T00:52:44.900Z,99524.45
2019-03-15T00:55:13.947Z,99529.08
2019-03-15T00:57:43.000Z,99542.42
2019-03-15T01:00:13.547Z,99548.27
2019-03-15T01:02:44.189Z,99548.62
2019-03-15T01:05:13.833Z,99562.09
2019-03-15T01:07:42.842Z,99563.62
2019-03-15T01:10:12.336Z,99583.84
2019-03-15T01:12:41.384Z,99596.02
2019-03-15T01:15:10.404Z,99598.42
2019-03-15T01:17:39.340Z,99609.76
2019-03-15T01:20:08.604Z,99613.08
2019-03-15T01:22:37.612Z,99620.85
2019-03-15T01:25:06.670Z,99627.56
2019-03-15T01:27:35.779Z,99633.85
2019-03-15T01:30:05.257Z,99647.84
2019-03-15T01:32:34.312Z,99658.70
2019-03-15T01:35:03.443Z,99658.53
2019-03-15T01:37:32.394Z,99669.08
2019-03-15T01:40:01.483Z,99666.25
2019-03-15T01:42:30.494Z,99667.91
2019-03-15T01:44:59.593Z,99675.84
2019-03-15T01:47:28.601Z,99657.83
2019-03-15T01:49:58.614Z,99679.12
2019-03-15T01:52:27.769Z,99669.08
2019-03-15T01:54:56.962Z,99682.84
2019-03-15T01:57:25.997Z,99682.11
2019-03-15T01:59:55.050Z,99685.58
2019-03-15T02:02:24.056Z,99698.66
2019-03-15T02:04:53.027Z,99697.84
2019-03-15T02:07:21.971Z,99705.66
2019-03-15T02:09:51.227Z,99694.31
2019-03-15T02:12:20.268Z,99695.36
2019-03-15T02:14:49.319Z,99700.30
2019-03-15T02:17:18.621Z,99702.39
2019-03-15T02:19:47.677Z,99703.97
2019-03-15T02:22:16.685Z,99705.32
2019-03-15T02:24:45.692Z,99707.11
2019-03-15T02:27:15.067Z,99708.20
2019-03-15T02:29:44.151Z,99718.94
2019-03-15T02:32:13.173Z,99724.87
2019-03-15T02:34:42.150Z,99724.83
2019-03-15T02:37:11.538Z,99725.91
2019-03-15T02:39:40.932Z,99730.05
2019-03-15T02:42:09.934Z,99732.23
2019-03-15T02:44:39.356Z,99731.98
2019-03-15T02:47:08.564Z,99731.16
2019-03-15T02:49:37.627Z,99732.30
2019-03-15T02:52:06.628Z,99733.17
2019-03-15T02:54:35.638Z,99730.55
2019-03-15T02:57:04.685Z,99733.95
2019-03-15T02:59:33.745Z,99714.04
2019-03-15T03:02:02.792Z,99735.43
2019-03-15T03:04:31.841Z,99741.41
2019-03-15T03:07:01.197Z,99744.49
2019-03-15T03:09:30.207Z,99744.41
2019-03-15T03:11:59.213Z,99751.92
2019-03-15T03:14:28.256Z,99757.46
2019-03-15T03:16:57.285Z,99756.11
2019-03-15T03:19:26.396Z,99756.11
2019-03-15T03:21:55.391Z,99761.53
2019-03-15T03:24:24.654Z,99758.17
2019-03-15T03:26:53.849Z,99753.27
2019-03-15T03:29:22.923Z,99752.09
2019-03-15T03:31:51.934Z,99748.80
2019-03-15T03:34:21.241Z,99742.55
2019-03-15T03:36:50.303Z,99741.81
2019-03-15T03:39:19.321Z,99747.23
2019-03-15T03:41:48.274Z,99746.47
2019-03-15T03:44:17.404Z,99749.55
2019-03-15T03:46:46.420Z,99750.19
2019-03-15T03:49:15.462Z,99745.13
2019-03-15T03:51:44.509Z,99752.00
2019-03-15T03:54:13.557Z,99751.75
2019-03-15T03:56:43.425Z,99755.11
2019-03-15T03:59:12.677Z,99755.16
2019-03-15T04:01:41.747Z,99758.04
2019-03-15T04:04:10.880Z,99760.85
2019-03-15T04:06:39.937Z,99763.30
2019-03-15T04:09:09.457Z,99756.08
2019-03-15T04:11:38.550Z,99758.05
2019-03-15T04:14:07.590Z,99755.09
2019-03-15T04:16:36.601Z,99761.10
2019-03-15T04:19:05.707Z,99760.19
2019-03-15T04:21:34.755Z,99759.59
2019-03-15T04:24:03.805Z,99765.05
2019-03-15T04:26:32.888Z,99763.67
2019-03-15T04:29:01.881Z,99764.78
2019-03-15T04:31:30.903Z,99762.69
2019-03-15T04:34:00.281Z,99768.06
2019-03-15T04:36:29.270Z,99777.16
2019-03-15T04:38:58.274Z,99777.20
2019-03-15T04:41:27.368Z,99777.00
2019-03-15T04:43:56.392Z,99783.33
2019-03-15T04:46:25.442Z,99784.98
2019-03-15T04:48:54.475Z,99780.75
2019-03-15T04:51:23.447Z,99792.86
2019-03-15T04:53:52.692Z,99777.63
2019-03-15T04:56:21.718Z,99790.05
2019-03-15T04:58:50.745Z,99793.09
2019-03-15T05:01:19.758Z,99795.94
2019-03-15T05:03:48.821Z,99781.19
2019-03-15T05:06:17.828Z,99780.87
2019-03-15T05:08:46.886Z,99771.41
2019-03-15T05:11:15.945Z,99763.90
2019-03-15T05:13:44.921Z,99766.08
2019-03-15T05:16:14.226Z,99771.22
2019-03-15T05:18:43.277Z,99770.39
2019-03-15T05:21:12.693Z,99775.81
2019-03-15T05:23:41.736Z,99775.81
2019-03-15T05:26:10.790Z,99778.65
2019-03-15T05:28:39.791Z,99779.87
2019-03-15T05:31:08.833Z,99781.14
2019-03-15T05:33:37.884Z,99787.03
2019-03-15T05:36:06.897Z,99784.03
2019-03-15T05:38:35.913Z,99779.44
2019-03-15T05:41:05.075Z,99778.88
2019-03-15T05:43:34.085Z,99780.37
2019-03-15T05:46:03.143Z,99784.84
2019-03-15T05:48:32.197Z,99787.28
2019-03-15T05:51:01.133Z,99778.47
2019-03-15T05:53:30.181Z,99774.18
2019-03-15T05:55:59.114Z,99769.38
2019-03-15T05:58:28.049Z,99767.67
2019-03-15T06:00:57.099Z,99761.87
2019-03-15T06:03:26.140Z,99756.02
2019-03-15T06:05:55.113Z,99767.37
2019-03-15T06:08:27.432Z,99763.48
2019-03-15T06:10:55.045Z,99767.20
2019-03-15T06:13:24.043Z,99763.61
2019-03-15T06:15:53.055Z,99773.17
2019-03-15T06:18:22.094Z,99768.45
2019-03-15T06:20:51.091Z,99788.59
2019-03-15T06:23:20.084Z,99795.25
2019-03-15T06:25:49.314Z,99788.52
2019-03-15T06:28:18.325Z,99782.76
2019-03-15T06:30:47.392Z,99775.15
2019-03-15T06:33:16.327Z,99770.27
2019-03-15T06:35:45.385Z,99768.64
2019-03-15T06:38:14.359Z,99761.56
2019-03-15T06:40:43.328Z,99754.38
2019-03-15T06:43:13.475Z,99755.80
2019-03-15T06:45:42.983Z,99747.02
2019-03-15T06:48:12.339Z,99755.80
2019-03-15T06:50:41.398Z,99761.58
2019-03-15T06:53:10.361Z,99757.19
2019-03-15T06:55:39.609Z,99761.97
2019-03-15T06:58:08.580Z,99760.05
2019-03-15T07:00:37.593Z,99757.56
2019-03-15T07:03:06.646Z,99757.73
2019-03-15T07:05:35.687Z,99759.25
2019-03-15T07:08:04.748Z,99746.91
2019-03-15T07:10:33.764Z,99744.99
2019-03-15T07:13:02.773Z,99740.20
2019-03-15T07:15:31.827Z,99740.80
2019-03-15T07:18:00.829Z,99735.24
2019-03-15T07:20:29.928Z,99722.61
2019-03-15T07:22:58.930Z,99720.75
2019-03-15T07:25:27.946Z,99714.75
2019-03-15T07:27:56.912Z,99713.09
2019-03-15T07:30:25.959Z,99708.02
2019-03-15T07:32:54.969Z,99701.08
2019-03-15T07:35:24.019Z,99704.30
2019-03-15T07:37:53.005Z,99709.16
2019-03-15T07:40:22.012Z,99692.74
2019-03-15T07:42:51.026Z,99690.48
2019-03-15T07:45:20.077Z,99688.06
2019-03-15T07:47:49.084Z,99681.11
2019-03-15T07:50:18.128Z,99682.97
2019-03-15T07:52:47.137Z,99671.33
2019-03-15T07:55:16.185Z,99679.77
2019-03-15T07:57:45.203Z,99667.80
2019-03-15T08:00:14.581Z,99670.53
2019-03-15T08:02:43.631Z,99674.17
2019-03-15T08:05:12.699Z,99673.23
2019-03-15T08:07:45.158Z,99676.22
2019-03-15T08:10:12.931Z,99672.24
2019-03-15T08:12:42.006Z,99672.73
2019-03-15T08:15:11.096Z,99676.65
2019-03-15T08:17:40.146Z,99683.11
2019-03-15T08:20:09.930Z,99668.91
2019-03-15T08:22:38.974Z,99672.67
2019-03-15T08:25:09.236Z,99675.03
2019-03-15T08:27:38.297Z,99677.11
2019-03-15T08:30:09.621Z,99677.30
2019-03-15T08:32:38.679Z,99670.94
2019-03-15T08:35:08.590Z,99670.70
2019-03-15T08:37:37.600Z,99666.92
2019-03-15T08:40:07.740Z,99655.42
2019-03-15T08:42:36.834Z,99658.78
2019-03-15T08:45:07.736Z,99660.47
2019-03-15T08:47:36.798Z,99656.60
2019-03-15T08:50:06.394Z,99640.20
2019-03-15T08:52:35.404Z,99650.70
2019-03-15T08:55:05.889Z,99647.31
2019-03-15T09:00:15.540Z,99636.84
2019-03-15T09:02:45.481Z,99630.22
2019-03-15T09:05:14.489Z,99631.50
2019-03-15T09:07:43.541Z,99613.56
2019-03-15T09:10:22.852Z,99607.89
2019-03-15T09:12:43.615Z,99602.52
2019-03-15T09:15:12.849Z,99597.78
2019-03-15T09:17:41.847Z,99578.70
2019-03-15T09:20:10.998Z,99564.34
2019-03-15T09:22:40.015Z,99560.26
2019-03-15T09:25:19.348Z,99550.44
2019-03-15T09:27:40.009Z,99546.33
2019-03-15T09:30:22.576Z,99535.89
2019-03-15T09:32:40.488Z,99529.75
2019-03-15T09:35:09.601Z,99526.02
2019-03-15T09:37:38.649Z,99524.23
2019-03-15T09:40:08.465Z,99521.95
2019-03-15T09:42:37.473Z,99514.12
2019-03-15T09:45:06.975Z,99515.45
2019-03-15T09:47:35.990Z,99500.95
2019-03-15T09:50:05.525Z,99488.69
2019-03-15T09:52:35.639Z,99488.23
2019-03-15T09:55:05.088Z,99476.56
2019-03-15T09:57:34.089Z,99468.87
2019-03-15T10:00:03.068Z,99446.64
2019-03-15T10:02:32.085Z,99438.38
2019-03-15T10:05:10.792Z,99436.28
2019-03-15T10:07:38.437Z,99439.78
2019-03-15T10:10:13.020Z,99433.03
2019-03-15T10:12:33.954Z,99436.10
2019-03-15T10:15:02.966Z,99428.61
2019-03-15T10:17:32.014Z,99425.67
2019-03-15T10:20:01.050Z,99411.95
2019-03-15T10:22:30.097Z,99397.22
2019-03-15T10:24:59.113Z,99396.13
2019-03-15T10:27:28.475Z,99389.22
2019-03-15T10:29:57.333Z,99386.91
2019-03-15T10:32:26.394Z,99365.95
2019-03-15T10:34:55.518Z,99374.22
2019-03-15T10:37:24.496Z,99359.93
2019-03-15T10:39:53.515Z,99335.94
2019-03-15T10:42:22.569Z,99317.21
2019-03-15T10:44:51.984Z,99308.13
2019-03-15T10:47:20.897Z,99312.80
2019-03-15T10:49:50.251Z,99303.88
2019-03-15T10:52:19.297Z,99294.80
2019-03-15T10:54:48.349Z,99278.69
2019-03-15T10:57:17.277Z,99279.94
2019-03-15T10:59:46.336Z,99276.30
2019-03-15T11:02:15.349Z,99265.09
2019-03-15T11:04:44.358Z,99263.31
2019-03-15T11:07:13.445Z,99242.09
2019-03-15T11:09:42.457Z,99228.60
2019-03-15T11:12:11.500Z,99212.02
2019-03-15T11:14:40.839Z,99203.88
2019-03-15T11:17:09.888Z,99208.13
2019-03-15T11:19:38.874Z,99192.79
2019-03-15T11:22:07.872Z,99181.74
2019-03-15T11:24:36.930Z,99175.08
2019-03-15T11:27:06.046Z,99165.61
2019-03-15T11:29:35.054Z,99147.70
2019-03-15T11:32:04.073Z,99144.64
2019-03-15T11:34:33.092Z,99137.44
2019-03-15T11:37:03.506Z,99132.14
2019-03-15T11:39:32.749Z,99123.67
2019-03-15T11:42:01.722Z,99126.69
2019-03-15T11:44:30.780Z,99105.70
2019-03-15T11:46:59.793Z,99089.77
2019-03-15T11:49:28.815Z,99088.54
2019-03-15T11:52:03.310Z,99085.77
2019-03-15T11:54:32.318Z,99076.13
2019-03-15T11:57:01.259Z,99072.31
2019-03-15T11:59:30.297Z,99055.66
2019-03-15T12:02:04.155Z,99049.17
2019-03-15T12:04:30.098Z,99038.71
2019-03-15T12:06:59.106Z,99033.47
2019-03-15T12:09:28.150Z,99038.71
2019-03-15T12:11:57.055Z,99020.63
2019-03-15T12:14:25.907Z,99016.91
2019-03-15T12:16:54.921Z,99013.52
2019-03-15T12:19:24.001Z,99003.54
2019-03-15T12:22:05.380Z,99008.34
2019-03-15T12:24:23.739Z,98991.77
2019-03-15T12:26:52.845Z,98997.95
2019-03-15T12:29:21.821Z,98994.52
2019-03-15T12:31:50.830Z,98994.13
2019-03-15T12:34:19.874Z,98969.19
2019-03-15T12:36:48.878Z,98976.28
2019-03-15T12:39:18.268Z,98980.09
2019-03-15T12:41:47.317Z,98968.67
2019-03-15T12:44:16.329Z,98975.62
2019-03-15T12:46:45.380Z,98964.72
2019-03-15T12:49:14.313Z,98961.95
2019-03-15T12:51:43.321Z,98965.84
2019-03-15T12:54:12.369Z,98970.84
2019-03-15T12:56:53.182Z,98979.45
2019-03-15T12:59:12.376Z,98953.97
2019-03-15T13:01:41.425Z,98981.82
2019-03-15T13:04:10.437Z,98986.87
2019-03-15T13:06:39.519Z,98981.97
2019-03-15T13:09:08.533Z,98970.95
2019-03-15T13:11:37.583Z,98977.55
2019-03-15T13:14:06.609Z,98992.95
2019-03-15T13:16:35.615Z,98982.06
2019-03-15T13:19:04.669Z,98991.63
2019-03-15T13:21:33.678Z,98983.39
2019-03-15T13:24:02.750Z,98989.17
2019-03-15T13:26:31.683Z,99003.75
2019-03-15T13:29:00.641Z,98997.17
2019-03-15T13:31:29.619Z,99004.44
2019-03-15T13:33:58.626Z,99008.95
2019-03-15T13:36:29.043Z,99007.56
2019-03-15T13:38:58.103Z,98988.38
2019-03-15T13:41:27.152Z,98997.90
2019-03-15T13:43:56.165Z,99004.87
2019-03-15T13:46:25.209Z,99018.03
2019-03-15T13:48:54.156Z,99014.22
2019-03-15T13:51:23.169Z,99025.23
2019-03-15T13:53:53.124Z,99013.13
2019-03-15T13:56:22.182Z,99024.77
2019-03-15T13:58:57.273Z,99022.98
2019-03-15T14:01:21.854Z,99024.47
2019-03-15T14:03:50.921Z,99026.07
2019-03-15T14:06:19.931Z,99036.30
2019-03-15T14:08:48.942Z,99041.06
2019-03-15T14:11:17.985Z,99040.65
2019-03-15T14:13:46.995Z,99061.80
2019-03-15T14:16:16.065Z,99054.22
2019-03-15T14:18:45.109Z,99051.46
2019-03-15T14:21:14.169Z,99059.03
2019-03-15T14:23:43.628Z,99068.61
2019-03-15T14:26:12.950Z,99073.61
2019-03-15T14:28:41.975Z,99042.50
2019-03-15T14:31:10.937Z,99079.61
2019-03-15T14:33:39.921Z,99073.30
2019-03-15T14:36:08.941Z,99065.77
2019-03-15T14:38:38.041Z,99061.03
2019-03-15T14:41:07.660Z,99065.89
2019-03-15T14:43:37.209Z,99067.41
2019-03-15T14:46:06.292Z,99079.39
2019-03-15T14:48:35.316Z,99071.91
2019-03-15T14:51:04.369Z,99067.77
2019-03-15T14:53:33.688Z,99069.20
2019-03-15T14:56:02.742Z,99077.82
2019-03-15T14:58:31.681Z,99074.76
2019-03-15T15:01:00.731Z,99069.15
2019-03-15T15:03:29.779Z,99070.44
2019-03-15T15:05:58.806Z,99050.16
2019-03-15T15:08:27.790Z,99077.39
2019-03-15T15:10:57.056Z,99066.40
2019-03-15T15:13:26.108Z,99090.47
2019-03-15T15:15:55.114Z,99070.58
2019-03-15T15:18:24.100Z,99079.70
2019-03-15T15:20:53.114Z,99085.23
2019-03-15T15:23:22.401Z,99089.56
2019-03-15T15:25:51.789Z,99095.03
2019-03-15T15:28:20.774Z,99095.41
2019-03-15T15:30:49.836Z,99084.64
2019-03-15T15:33:18.788Z,99093.39
2019-03-15T15:35:47.821Z,99080.38
2019-03-15T15:38:16.882Z,99070.81
2019-03-15T15:40:45.905Z,99097.58
2019-03-15T15:43:14.966Z,99072.68
2019-03-15T15:45:44.030Z,99084.27
2019-03-15T15:48:13.033Z,99107.52
2019-03-15T15:50:42.092Z,99092.72
2019-03-15T15:53:11.423Z,99089.50
2019-03-15T15:55:40.352Z,99085.02
2019-03-15T15:58:17.765Z,99084.63
2019-03-15T16:00:40.510Z,99086.28
2019-03-15T16:03:09.643Z,99090.84
2019-03-15T16:05:38.692Z,99110.56
2019-03-15T16:08:07.782Z,99109.55
2019-03-15T16:10:36.793Z,99119.63
2019-03-15T16:13:16.551Z,99113.84
2019-03-15T16:15:36.600Z,99103.68
2019-03-15T16:18:05.668Z,99113.84
2019-03-15T16:20:34.684Z,99110.83
2019-03-15T16:23:03.771Z,99121.81
2019-03-15T16:25:33.103Z,99122.33
2019-03-15T16:28:02.040Z,99138.36
2019-03-15T16:30:31.095Z,99111.53
2019-03-15T16:33:02.141Z,99140.63
2019-03-15T16:35:31.198Z,99117.16
2019-03-15T16:38:00.199Z,99131.44
2019-03-15T16:40:29.249Z,99139.49
2019-03-15T16:42:58.239Z,99131.87
2019-03-15T16:45:27.298Z,99147.37
2019-03-15T16:47:56.345Z,99152.83
2019-03-15T16:50:25.439Z,99163.86
2019-03-15T16:52:54.759Z,99156.89
2019-03-15T16:55:23.778Z,99159.23
2019-03-15T16:57:52.844Z,99171.98
2019-03-15T17:00:21.849Z,99163.50
2019-03-15T17:02:50.937Z,99152.27
2019-03-15T17:05:19.977Z,99167.81
2019-03-15T17:07:48.986Z,99151.83
2019-03-15T17:10:18.052Z,99174.41
2019-03-15T17:12:50.597Z,99173.08
2019-03-15T17:15:19.684Z,99171.31
2019-03-15T17:17:48.706Z,99175.69
2019-03-15T17:20:17.923Z,99191.80
2019-03-15T17:22:47.040Z,99174.67
2019-03-15T17:25:16.040Z,99196.73
2019-03-15T17:27:45.094Z,99211.83
2019-03-15T17:30:14.226Z,99222.61
2019-03-15T17:32:43.251Z,99226.03
2019-03-15T17:35:12.510Z,99223.73
2019-03-15T17:37:41.617Z,99226.02
2019-03-15T17:40:11.679Z,99246.12
2019-03-15T17:42:40.676Z,99235.97
2019-03-15T17:45:10.547Z,99252.38
2019-03-15T17:47:39.611Z,99266.20
2019-03-15T17:50:11.644Z,99232.59
2019-03-15T17:52:40.655Z,99254.91
2019-03-15T17:55:09.736Z,99248.19
2019-03-15T17:57:38.804Z,99246.11
2019-03-15T18:00:45.164Z,99294.98
2019-03-15T18:03:21.514Z,99290.66
2019-03-15T18:05:45.683Z,99289.06
2019-03-15T18:08:14.696Z,99315.73
2019-03-15T18:10:43.754Z,99333.94
2019-03-15T18:13:12.857Z,99315.06
2019-03-15T18:15:43.655Z,99322.31
2019-03-15T18:18:12.674Z,99329.08
2019-03-15T18:20:41.733Z,99337.11
2019-03-15T18:23:11.053Z,99336.72
2019-03-15T18:25:40.056Z,99343.05
2019-03-15T18:28:09.425Z,99359.29
2019-03-15T18:30:38.760Z,99373.50
2019-03-15T18:33:07.766Z,99369.65
2019-03-15T18:35:36.804Z,99368.38
2019-03-15T18:38:05.888Z,99393.20
2019-03-15T18:40:34.906Z,99383.08
2019-03-15T18:43:03.924Z,99377.14
2019-03-15T18:45:32.996Z,99397.28
2019-03-15T18:48:02.000Z,99404.98
2019-03-15T18:50:31.010Z,99415.88
2019-03-15T18:53:00.352Z,99420.75
2019-03-15T18:55:29.361Z,99425.41
2019-03-15T18:57:58.408Z,99426.48
2019-03-15T19:00:27.417Z,99414.80
2019-03-15T19:02:59.716Z,99421.27
2019-03-15T19:05:27.253Z,99425.20
2019-03-15T19:07:56.267Z,99446.02
2019-03-15T19:10:25.337Z,99425.59
2019-03-15T19:12:54.735Z,99438.33
2019-03-15T19:15:23.840Z,99456.30
2019-03-15T19:17:52.882Z,99449.53
2019-03-15T19:20:21.945Z,99465.19
2019-03-15T19:22:50.962Z,99465.88
2019-03-15T19:25:20.021Z,99482.72
2019-03-15T19:27:49.131Z,99484.08
2019-03-15T19:30:18.198Z,99489.30
2019-03-15T19:32:47.268Z,99467.35
2019-03-15T19:35:16.478Z,99499.58
2019-03-15T19:37:45.481Z,99491.50
2019-03-15T19:40:14.577Z,99503.97
2019-03-15T19:42:45.508Z,99511.08
2019-03-15T19:45:14.765Z,99521.02
2019-03-15T19:47:43.771Z,99524.05
2019-03-15T19:50:13.988Z,99522.69
2019-03-15T19:52:43.243Z,99543.72
2019-03-15T19:55:12.904Z,99540.84
2019-03-15T19:57:41.926Z,99544.14
2019-03-15T20:00:13.143Z,99548.77
2019-03-15T20:02:42.298Z,99552.27
2019-03-15T20:05:11.325Z,99574.35
2019-03-15T20:07:40.476Z,99572.97
2019-03-15T20:10:10.985Z,99570.96
2019-03-15T20:12:40.072Z,99571.00
2019-03-15T20:15:09.700Z,99586.09
2019-03-15T20:17:38.716Z,99595.48
2019-03-15T20:20:08.773Z,99584.53
2019-03-15T20:22:37.928Z,99582.09
2019-03-15T20:25:08.461Z,99597.27
2019-03-15T20:27:37.513Z,99605.03
2019-03-15T20:30:20.156Z,99598.31
2019-03-15T20:32:38.156Z,99605.98
2019-03-15T20:35:07.309Z,99602.59
2019-03-15T20:37:36.319Z,99610.66
2019-03-15T20:40:05.841Z,99613.14
2019-03-15T20:42:34.803Z,99611.52
2019-03-15T20:45:04.035Z,99620.34
2019-03-15T20:47:36.076Z,99616.98
2019-03-15T20:50:03.844Z,99620.30
2019-03-15T20:52:32.952Z,99625.31
2019-03-15T20:55:01.946Z,99632.16
2019-03-15T20:57:30.966Z,99622.43
2019-03-15T21:00:00.000Z,99650.96
2019-03-15T21:02:29.063Z,99649.67
2019-03-15T21:04:58.087Z,99655.91
2019-03-15T21:07:27.232Z,99655.77
2019-03-15T21:09:56.236Z,99663.36
2019-03-15T21:12:26.270Z,99646.30
2019-03-15T21:14:55.334Z,99678.71
2019-03-15T21:17:24.289Z,99670.33
2019-03-15T21:19:53.300Z,99660.77
2019-03-15T21:22:22.363Z,99670.81
2019-03-15T21:24:51.298Z,99688.44
2019-03-15T21:27:20.345Z,99685.75
2019-03-15T21:29:49.640Z,99706.38
2019-03-15T21:32:18.838Z,99703.45
2019-03-15T21:34:47.877Z,99714.57
2019-03-15T21:37:16.933Z,99722.99
2019-03-15T21:39:45.959Z,99732.80
2019-03-15T21:42:15.031Z,99718.64
2019-03-15T21:44:44.076Z,99730.90
2019-03-15T21:47:13.149Z,99742.80
2019-03-15T21:49:42.190Z,99742.80
2019-03-15T21:52:12.581Z,99749.87
2019-03-15T21:54:43.106Z,99761.22
2019-03-15T21:57:12.120Z,99747.42
2019-03-15T21:59:41.048Z,99739.67
2019-03-15T22:02:10.111Z,99765.61
2019-03-15T22:04:39.428Z,99773.05
2019-03-15T22:07:08.500Z,99804.32
2019-03-15T22:09:37.449Z,99796.51
2019-03-15T22:12:06.480Z,99804.02
2019-03-15T22:14:35.503Z,99800.73
2019-03-15T22:17:04.560Z,99797.74
2019-03-15T22:19:33.604Z,99801.09
2019-03-15T22:22:02.660Z,99800.61
2019-03-15T22:24:31.689Z,99814.34
2019-03-15T22:27:01.049Z,99818.84
2019-03-15T22:29:30.180Z,99824.75
2019-03-15T22:31:59.205Z,99824.75
2019-03-15T22:34:28.551Z,99832.67
2019-03-15T22:36:57.607Z,99829.02
2019-03-15T22:39:26.664Z,99831.89
2019-03-15T22:41:55.675Z,99839.84
2019-03-15T22:44:24.722Z,99838.31
2019-03-15T22:46:53.734Z,99835.55
2019-03-15T22:49:22.786Z,99850.63
2019-03-15T22:51:51.833Z,99863.42
2019-03-15T22:54:20.843Z,99853.98
2019-03-15T22:56:49.906Z,99855.04
2019-03-15T22:59:18.946Z,99862.52
2019-03-15T23:01:48.084Z,99864.14
2019-03-15T23:04:17.145Z,99863.71
2019-03-15T23:06:46.149Z,99881.42
2019-03-15T23:09:15.203Z,99883.38
2019-03-15T23:11:44.298Z,99895.59
2019-03-15T23:14:13.696Z,99894.80
2019-03-15T23:16:42.882Z,99893.17
2019-03-15T23:19:11.889Z,99885.77
2019-03-15T23:21:40.821Z,99890.14
2019-03-15T23:24:09.873Z,99895.73
2019-03-15T23:26:38.989Z,99904.19
2019-03-15T23:29:08.039Z,99903.43
2019-03-15T23:31:43.677Z,99924.17
2019-03-15T23:34:07.833Z,99929.20
2019-03-15T23:36:36.909Z,99925.36
2019-03-15T23:39:07.182Z,99924.10
2019-03-15T23:41:36.240Z,99926.63
2019-03-15T23:44:05.354Z,99937.61
2019-03-15T23:46:34.409Z,99954.32
2019-03-15T23:49:03.451Z,99944.53
2019-03-15T23:51:32.579Z,99965.44
2019-03-15T23:54:01.620Z,99956.55
2019-03-15T23:56:30.929Z,99953.05
2019-03-15T23:58:59.980Z,99952.31
